Time;durP1;ratioP1;P1;durP2;ratioP2;P2;SDS_P1;SDS_P2;PMS_P1;PMS_P2;Temp;Humidity;BMP_temperature;BMP_pressure;BME280_temperature;BME280_humidity;BME280_pressure;Samples;Min_cycle;Max_cycle;Signal;HPM_P1;HPM_P2
2022/06/10 00:00:53;;;;;;;180.12;113.88;;;;;;;19.14;50.96;100632.15;462977;114;925079;-76
2022/06/10 00:01:56;;;;;;;180.11;111.08;;;;;;;19.14;50.96;100632.15;462923;114;922475;-77
2022/06/10 00:02:59;;;;;;;187.54;114.71;;;;;;;19.13;51.08;100636.84;463002;114;922398;-77
2022/06/10 00:04:02;;;;;;;179.32;113.27;;;;;;;19.15;51.17;100631.89;463018;114;922486;-76
2022/06/10 00:05:06;;;;;;;178.36;111.59;;;;;;;19.14;51.18;100632.98;462976;114;922501;-77
2022/06/10 00:06:12;;;;;;;182.69;113.71;;;;;;;19.13;51.08;100625.79;462864;114;923024;-77
2022/06/10 00:07:15;;;;;;;186.91;117.59;;;;;;;19.11;51.09;100639.06;462784;114;922514;-76
2022/06/10 00:08:21;;;;;;;181.70;115.08;;;;;;;19.08;51.19;100645.11;462973;114;922593;-76
2022/06/10 00:09:24;;;;;;;193.79;119.14;;;;;;;19.05;51.27;100637.37;462805;114;923179;-76
2022/06/10 00:10:27;;;;;;;191.01;118.72;;;;;;;19.04;51.36;100637.64;463023;114;923259;-77
2022/06/10 00:11:30;;;;;;;184.18;118.01;;;;;;;19.01;51.42;100639.03;462967;114;922635;-76
2022/06/10 00:12:33;;;;;;;195.51;121.51;;;;;;;18.99;51.46;100641.22;462936;114;922551;-77
2022/06/10 00:13:40;;;;;;;189.21;118.91;;;;;;;18.98;51.52;100635.95;462969;114;922592;-77
2022/06/10 00:14:43;;;;;;;188.57;118.92;;;;;;;18.98;51.57;100641.47;462789;114;922860;-76
2022/06/10 00:15:47;;;;;;;193.34;120.27;;;;;;;18.96;51.59;100630.72;462998;114;923013;-76
2022/06/10 00:16:50;;;;;;;188.55;121.85;;;;;;;18.94;51.64;100632.91;462954;114;922879;-76
2022/06/10 00:17:54;;;;;;;181.76;116.27;;;;;;;18.94;51.66;100637.59;462964;114;922915;-76
2022/06/10 00:18:57;;;;;;;189.49;120.86;;;;;;;18.92;51.73;100640.62;462933;114;924776;-77
2022/06/10 00:20:00;;;;;;;177.37;116.24;;;;;;;18.91;51.83;100638.95;462988;114;922700;-77
2022/06/10 00:21:07;;;;;;;181.24;114.51;;;;;;;18.91;51.92;100641.71;462929;114;923048;-76
2022/06/10 00:22:10;;;;;;;170.81;110.66;;;;;;;18.91;52.00;100638.95;462820;114;922450;-76
2022/06/10 00:23:13;;;;;;;183.21;111.81;;;;;;;18.90;52.00;100639.24;462965;114;923113;-76
2022/06/10 00:24:17;;;;;;;178.11;111.20;;;;;;;18.89;52.10;100634.80;462858;114;922555;-76
2022/06/10 00:25:20;;;;;;;170.85;110.86;;;;;;;18.88;52.23;100645.03;462996;114;923044;-77
2022/06/10 00:26:23;;;;;;;173.60;109.45;;;;;;;18.88;52.27;100638.66;462894;114;922607;-77
2022/06/10 00:27:27;;;;;;;179.06;109.14;;;;;;;18.88;52.32;100649.72;462903;114;930306;-77
2022/06/10 00:28:30;;;;;;;172.13;109.57;;;;;;;18.88;52.37;100638.66;462947;114;922941;-77
2022/06/10 00:29:33;;;;;;;168.51;106.81;;;;;;;18.88;52.47;100642.27;462806;112;923062;-76
2022/06/10 00:30:37;;;;;;;165.25;106.92;;;;;;;18.89;52.50;100645.86;462911;114;922913;-77
2022/06/10 00:31:40;;;;;;;171.92;109.82;;;;;;;18.89;52.60;100640.33;462830;114;923020;-76
2022/06/10 00:32:43;;;;;;;170.72;107.60;;;;;;;18.89;52.56;100635.64;462920;114;923066;-77
2022/06/10 00:33:47;;;;;;;169.39;104.41;;;;;;;18.90;52.60;100647.53;469029;112;923043;-76
2022/06/10 00:34:50;;;;;;;166.99;105.93;;;;;;;18.90;52.68;100636.48;471088;112;922844;-75
2022/06/10 00:35:53;;;;;;;164.43;105.84;;;;;;;18.91;52.81;100643.67;471235;112;922543;-76
2022/06/10 00:36:57;;;;;;;165.69;104.67;;;;;;;18.92;52.74;100643.38;471192;112;922694;-76
2022/06/10 00:38:00;;;;;;;161.59;102.56;;;;;;;18.93;52.70;100639.52;471153;112;922639;-77
2022/06/10 00:39:03;;;;;;;172.73;105.38;;;;;;;18.94;52.66;100643.12;471084;112;930445;-76
2022/06/10 00:40:10;;;;;;;159.64;101.61;;;;;;;18.94;52.66;100646.72;471043;112;930342;-77
2022/06/10 00:41:14;;;;;;;167.60;105.03;;;;;;;18.95;52.64;100644.79;470902;112;922949;-77
2022/06/10 00:42:17;;;;;;;168.88;104.23;;;;;;;18.94;52.58;100646.72;471154;112;922500;-77
2022/06/10 00:43:24;;;;;;;174.09;106.72;;;;;;;18.93;52.57;100641.45;471191;112;930094;-77
2022/06/10 00:44:37;;;;;;;162.83;105.58;;;;;;;18.90;52.55;100642.84;470979;112;922560;-76
2022/06/10 00:46:03;;;;;;;172.88;105.78;;;;;;;18.87;52.53;100650.81;471063;112;923078;-77
2022/06/10 00:47:25;;;;;;;168.22;104.60;;;;;;;18.83;52.58;100650.52;470806;112;922631;-76
2022/06/10 00:48:47;;;;;;;162.75;103.11;;;;;;;18.80;52.71;100642.75;470138;112;923067;-77
2022/06/10 00:49:59;;;;;;;159.26;102.66;;;;;;;18.77;52.85;100650.75;470989;112;922557;-77
2022/06/10 00:51:12;;;;;;;159.13;100.73;;;;;;;18.77;52.88;100656.28;452734;117;922978;-76
2022/06/10 00:52:23;;;;;;;163.43;102.87;;;;;;;18.73;52.95;100651.30;470762;112;922795;-76
2022/06/10 00:53:29;;;;;;;167.65;106.72;;;;;;;18.73;52.94;100659.59;471002;112;923034;-76
2022/06/10 00:54:39;;;;;;;168.03;106.07;;;;;;;18.73;52.98;100655.99;470804;112;923297;-76
2022/06/10 00:55:44;;;;;;;170.76;107.44;;;;;;;18.74;52.95;100654.90;453035;117;922938;-76
2022/06/10 00:56:57;;;;;;;177.46;111.73;;;;;;;18.74;52.88;100658.47;471031;112;923520;-77
2022/06/10 00:58:03;;;;;;;171.87;112.32;;;;;;;18.73;52.79;100659.59;470757;112;923122;-77
2022/06/10 00:59:16;;;;;;;184.42;116.51;;;;;;;18.74;52.67;100654.90;443805;119;923585;-76
2022/06/10 01:00:20;;;;;;;188.87;116.21;;;;;;;18.72;52.57;100651.56;462731;112;922929;-76
2022/06/10 01:01:24;;;;;;;185.92;113.28;;;;;;;18.72;52.49;100662.61;471170;112;922555;-76
2022/06/10 01:02:33;;;;;;;179.28;115.36;;;;;;;18.72;52.48;100657.09;471055;112;922638;-76
2022/06/10 01:03:36;;;;;;;182.01;116.30;;;;;;;18.71;52.45;100659.02;471034;112;922623;-76
2022/06/10 01:04:42;;;;;;;183.32;115.69;;;;;;;18.71;52.46;100659.02;471275;112;922558;-76
2022/06/10 01:05:45;;;;;;;180.62;115.78;;;;;;;18.71;52.49;100660.94;471011;112;922499;-76
2022/06/10 01:06:48;;;;;;;191.21;118.71;;;;;;;18.70;52.42;100662.03;471268;112;922518;-75
2022/06/10 01:08:10;;;;;;;180.47;116.83;;;;;;;18.68;52.39;100658.73;471235;112;922436;-75
2022/06/10 01:09:15;;;;;;;178.69;112.79;;;;;;;18.66;52.43;100667.27;471082;112;922985;-76
2022/06/10 01:10:20;;;;;;;169.67;111.82;;;;;;;18.64;52.46;100668.62;471066;112;922488;-78
2022/06/10 01:11:32;;;;;;;176.87;114.49;;;;;;;18.62;52.46;100662.55;471034;112;925603;-76
2022/06/10 01:12:56;;;;;;;196.46;115.13;;;;;;;18.60;52.50;100665.56;471030;112;923003;-77
2022/06/10 01:14:21;;;;;;;176.88;110.95;;;;;;;18.62;52.52;100674.44;471030;112;922825;-76
2022/06/10 01:15:43;;;;;;;169.80;105.16;;;;;;;18.60;52.51;100673.02;469270;112;923012;-77
2022/06/10 01:17:10;;;;;;;170.13;108.21;;;;;;;18.60;52.50;100676.61;462676;114;922874;-76
2022/06/10 01:18:26;;;;;;;166.24;105.63;;;;;;;18.57;52.46;100677.16;427152;124;922943;-76
2022/06/10 01:19:49;;;;;;;174.48;107.39;;;;;;;18.55;52.38;100675.75;426499;121;923334;-77
2022/06/10 01:21:24;;;;;;;172.42;106.67;;;;;;;18.52;52.34;100674.33;427110;124;923265;-77
2022/06/10 01:22:33;;;;;;;164.84;104.57;;;;;;;18.49;52.42;100677.61;427075;123;922794;-76
2022/06/10 01:24:10;;;;;;;173.62;106.86;;;;;;;18.48;52.55;100675.09;427083;124;922829;-77
2022/06/10 01:25:28;;;;;;;169.29;107.06;;;;;;;18.47;52.62;100682.55;437947;121;923210;-77
2022/06/10 01:27:47;;;;;;;175.34;110.11;;;;;;;18.46;52.59;100675.39;454614;114;923361;-76
2022/06/10 01:27:52;;;;;;;189.23;114.01;;;;;;;18.46;52.55;100680.91;450659;117;923199;-76
2022/06/10 01:29:26;;;;;;;182.08;114.18;;;;;;;18.45;52.57;100675.64;462349;114;923407;-77
2022/06/10 01:30:51;;;;;;;179.73;110.83;;;;;;;18.44;52.49;100673.97;436473;120;923384;-76
2022/06/10 01:32:04;;;;;;;175.93;108.74;;;;;;;18.51;52.43;100675.42;476644;110;948530;-76
2022/06/10 01:33:40;;;;;;;175.65;107.82;;;;;;;18.40;52.47;100675.61;465220;114;923051;-76
2022/06/10 01:34:46;;;;;;;162.85;101.66;;;;;;;18.40;52.46;100675.61;463369;114;923114;-76
2022/06/10 01:36:11;;;;;;;164.71;103.51;;;;;;;18.39;52.35;100684.98;459004;114;923066;-76
2022/06/10 01:37:18;;;;;;;163.17;99.73;;;;;;;18.37;52.33;100681.64;459596;114;923024;-75
2022/06/10 01:38:45;;;;;;;157.04;99.48;;;;;;;18.35;52.29;100679.16;462775;114;922565;-76
2022/06/10 01:39:55;;;;;;;160.49;98.67;;;;;;;18.34;52.24;100680.25;461665;114;922791;-76
2022/06/10 01:41:25;;;;;;;164.29;102.05;;;;;;;18.34;52.21;100677.49;462591;114;922569;-76
2022/06/10 01:42:35;;;;;;;160.19;98.24;;;;;;;18.33;52.20;100679.42;462549;114;923000;-76
2022/06/10 01:43:52;;;;;;;158.86;98.07;;;;;;;18.31;52.21;100684.36;462627;114;930395;-76
2022/06/10 01:45:17;;;;;;;147.74;93.23;;;;;;;18.31;52.28;100681.59;462810;114;922650;-76
2022/06/10 01:46:27;;;;;;;137.03;90.49;;;;;;;18.31;52.10;100680.77;462828;114;922845;-76
2022/06/10 01:47:39;;;;;;;144.18;92.79;;;;;;;18.29;52.06;100681.05;462477;114;923120;-76
2022/06/10 01:48:58;;;;;;;146.58;94.22;;;;;;;18.28;52.02;100679.38;462853;114;922561;-76
2022/06/10 01:50:04;;;;;;;151.52;93.14;;;;;;;18.27;51.99;100677.70;461604;114;923048;-76
2022/06/10 01:51:14;;;;;;;149.61;93.98;;;;;;;18.26;51.95;100676.03;462764;114;922812;-76
2022/06/10 01:52:38;;;;;;;148.43;93.74;;;;;;;18.27;51.93;100683.23;462794;114;923148;-76
2022/06/10 01:53:51;;;;;;;149.15;93.09;;;;;;;18.26;51.91;100684.31;445895;119;923334;-76
2022/06/10 01:55:00;;;;;;;152.43;95.11;;;;;;;18.25;51.96;100684.57;445730;117;922912;-76
2022/06/10 01:56:09;;;;;;;151.78;95.87;;;;;;;18.24;52.03;100683.77;445575;119;922736;-76
2022/06/10 01:57:34;;;;;;;155.07;96.96;;;;;;;18.24;52.07;100680.17;445625;119;922837;-76
2022/06/10 01:58:43;;;;;;;151.94;93.93;;;;;;;18.24;52.11;100685.69;445878;119;922797;-76
2022/06/10 01:59:50;;;;;;;153.66;98.82;;;;;;;18.23;52.18;100678.50;455436;114;922668;-75
2022/06/10 02:00:59;;;;;;;154.49;97.61;;;;;;;18.23;52.29;100686.78;462712;114;922573;-76
2022/06/10 02:02:12;;;;;;;150.26;95.73;;;;;;;18.22;52.42;100687.87;462838;114;922610;-76
2022/06/10 02:03:25;;;;;;;152.43;97.31;;;;;;;18.22;52.55;100676.83;462818;114;922575;-76
2022/06/10 02:04:32;;;;;;;156.07;95.57;;;;;;;18.22;52.64;100679.59;462803;114;922948;-76
2022/06/10 02:05:39;;;;;;;158.74;97.77;;;;;;;18.21;52.81;100683.44;462863;114;922650;-76
2022/06/10 02:06:54;;;;;;;159.31;97.41;;;;;;;18.23;52.89;100682.09;462823;114;923011;-76
2022/06/10 02:08:04;;;;;;;161.38;97.72;;;;;;;18.23;52.91;100689.55;462854;114;922582;-76
2022/06/10 02:09:11;;;;;;;156.22;97.48;;;;;;;18.23;53.03;100684.02;462246;114;922594;-76
2022/06/10 02:10:22;;;;;;;153.32;97.51;;;;;;;18.24;53.11;100691.21;462340;114;922574;-76
2022/06/10 02:11:27;;;;;;;155.21;98.42;;;;;;;18.23;53.18;100687.62;462005;114;923049;-76
2022/06/10 02:12:36;;;;;;;158.25;98.32;;;;;;;18.24;53.27;100685.69;462924;114;923121;-76
2022/06/10 02:13:45;;;;;;;153.76;95.01;;;;;;;18.24;53.27;100681.01;462824;114;923202;-76
2022/06/10 02:14:55;;;;;;;151.84;96.22;;;;;;;18.25;53.32;100684.57;462122;114;923068;-76
2022/06/10 02:16:00;;;;;;;157.07;95.94;;;;;;;18.26;53.38;100686.23;462743;114;922467;-76
2022/06/10 02:17:06;;;;;;;147.13;96.49;;;;;;;18.26;53.43;100691.77;462944;114;922580;-76
2022/06/10 02:18:13;;;;;;;153.44;95.89;;;;;;;18.26;53.48;100687.08;462935;114;922939;-76
2022/06/10 02:19:20;;;;;;;143.89;94.36;;;;;;;18.26;53.58;100683.48;461155;114;922456;-76
2022/06/10 02:20:26;;;;;;;151.51;93.20;;;;;;;18.26;53.63;100691.77;462885;114;923044;-77
2022/06/10 02:21:42;;;;;;;139.48;90.86;;;;;;;18.26;53.75;100681.55;462950;114;922538;-76
2022/06/10 02:22:48;;;;;;;137.56;88.67;;;;;;;18.26;53.86;100687.08;462505;112;922478;-76
2022/06/10 02:24:00;;;;;;;132.12;84.92;;;;;;;18.26;53.97;100686.23;462913;114;923146;-76
2022/06/10 02:25:16;;;;;;;133.96;81.19;;;;;;;18.26;53.99;100691.77;462894;114;923604;-77
2022/06/10 02:26:23;;;;;;;124.91;75.78;;;;;;;18.25;53.99;100685.41;462856;112;923027;-77
2022/06/10 02:27:33;;;;;;;117.84;75.44;;;;;;;18.25;53.87;100695.61;462862;114;923088;-76
2022/06/10 02:28:39;;;;;;;125.19;75.32;;;;;;;18.25;53.77;100692.85;462920;114;922986;-76
2022/06/10 02:29:55;;;;;;;118.20;73.44;;;;;;;18.26;53.71;100691.77;464452;113;923058;-77
2022/06/10 02:31:18;;;;;;;119.73;73.29;;;;;;;18.26;53.61;100689.00;465121;113;923315;-76
2022/06/10 02:32:23;;;;;;;117.01;74.78;;;;;;;18.26;53.53;100692.59;467554;113;922950;-76
2022/06/10 02:33:26;;;;;;;114.75;71.86;;;;;;;18.27;53.51;100697.03;468255;113;922867;-76
2022/06/10 02:34:30;;;;;;;120.66;74.73;;;;;;;18.27;53.41;100694.27;468380;113;922823;-76
2022/06/10 02:35:36;;;;;;;122.16;75.22;;;;;;;18.28;53.33;100697.86;468398;113;922609;-76
2022/06/10 02:37:11;;;;;;;111.99;71.28;;;;;;;18.28;53.43;100695.94;467928;113;922435;-76
2022/06/10 02:38:33;;;;;;;111.99;69.36;;;;;;;18.27;53.32;100698.95;467313;113;922693;-76
2022/06/10 02:39:57;;;;;;;117.44;68.87;;;;;;;18.27;53.19;100709.99;467615;113;923423;-76
2022/06/10 02:41:13;;;;;;;114.27;69.97;;;;;;;18.25;53.24;100706.66;468285;113;922995;-76
2022/06/10 02:42:38;;;;;;;105.78;67.48;;;;;;;18.24;53.25;100707.77;468231;113;923029;-76
2022/06/10 02:43:53;;;;;;;114.28;69.15;;;;;;;18.24;53.30;100710.53;459847;113;923588;-76
2022/06/10 02:45:24;;;;;;;102.03;66.09;;;;;;;18.24;53.24;100710.53;467937;113;922789;-76
2022/06/10 02:46:29;;;;;;;;;;;;;;;18.24;53.17;100716.05;471647;113;922082;-76
2022/06/10 02:47:52;;;;;;;108.58;60.88;;;;;;;18.24;53.03;100707.77;451260;117;922792;-76
2022/06/10 02:49:15;;;;;;;102.98;60.64;;;;;;;18.22;52.96;100709.95;465808;113;930499;-76
2022/06/10 02:50:18;;;;;;;101.73;61.44;;;;;;;18.22;52.75;100716.31;468112;113;922583;-76
2022/06/10 02:51:21;;;;;;;112.14;64.49;;;;;;;18.22;52.51;100712.71;468300;113;922584;-77
2022/06/10 02:52:27;;;;;;;104.68;63.02;;;;;;;18.23;52.40;100708.86;468262;113;923017;-76
2022/06/10 02:53:31;;;;;;;108.66;64.83;;;;;;;18.24;52.24;100711.37;468030;113;922517;-76
2022/06/10 02:54:37;;;;;;;104.71;65.54;;;;;;;18.26;52.09;100716.60;468212;113;922550;-76
2022/06/10 02:55:40;;;;;;;107.48;65.32;;;;;;;18.29;51.93;100716.94;468101;113;923027;-76
2022/06/10 02:56:44;;;;;;;106.41;68.01;;;;;;;18.31;51.79;100714.72;468327;113;922671;-76
2022/06/10 03:01:12;;;;;;;112.86;64.50;;;;;;;18.40;51.59;100717.02;468090;113;922572;-76
2022/06/10 03:02:37;;;;;;;112.58;64.93;;;;;;;18.40;51.51;100712.33;468169;113;923007;-77
2022/06/10 03:03:52;;;;;;;107.68;63.89;;;;;;;18.41;51.51;100710.41;468159;113;923533;-76
2022/06/10 03:05:33;;;;;;;107.67;66.43;;;;;;;18.42;51.48;100718.40;468170;113;922735;-76
2022/06/10 03:07:15;;;;;;;108.05;64.31;;;;;;;18.44;51.50;100715.38;468058;113;922999;-76
2022/06/10 03:08:30;;;;;;;107.53;64.29;;;;;;;18.45;51.53;100723.41;468180;113;922932;-76
2022/06/10 03:09:58;;;;;;;111.31;67.34;;;;;;;18.46;51.57;100714.05;467974;113;923012;-76
2022/06/10 03:11:10;;;;;;;112.51;68.04;;;;;;;18.48;51.71;100711.83;468179;113;922643;-76
2022/06/10 03:12:29;;;;;;;107.69;66.22;;;;;;;18.49;51.86;100705.22;468164;113;922610;-76
2022/06/10 03:13:56;;;;;;;114.67;66.51;;;;;;;18.51;51.97;100718.77;467366;113;922577;-77
2022/06/10 03:15:20;;;;;;;112.13;67.06;;;;;;;18.52;51.92;100715.75;468132;113;922973;-76
2022/06/10 03:16:51;;;;;;;120.28;69.78;;;;;;;18.54;51.81;100721.86;468282;113;922534;-77
2022/06/10 03:18:03;;;;;;;110.16;68.15;;;;;;;18.57;51.71;100721.34;462348;113;922624;-77
2022/06/10 03:19:30;;;;;;;117.16;70.86;;;;;;;18.60;51.53;100715.28;467029;112;922798;-77
2022/06/10 03:20:39;;;;;;;113.60;66.80;;;;;;;18.63;51.40;100717.53;462798;114;922522;-76
2022/06/10 03:22:08;;;;;;;111.82;66.02;;;;;;;18.66;51.35;100724.44;463116;113;922761;-76
2022/06/10 03:23:15;;;;;;;116.22;65.61;;;;;;;18.68;51.22;100727.78;462784;114;922537;-76
2022/06/10 03:24:43;;;;;;;109.45;67.21;;;;;;;18.72;51.10;100724.22;462805;114;923112;-77
2022/06/10 03:25:49;;;;;;;110.09;69.03;;;;;;;18.73;51.04;100723.12;452702;117;922648;-77
2022/06/10 03:27:13;;;;;;;110.44;68.68;;;;;;;18.77;50.93;100714.30;463821;112;923086;-74
2022/06/10 03:28:37;;;;;;;114.95;70.36;;;;;;;18.80;50.84;100722.87;469624;112;922495;-76
2022/06/10 03:29:50;;;;;;;114.54;68.41;;;;;;;18.82;50.82;100722.61;463536;112;922599;-76
2022/06/10 03:30:57;;;;;;;107.08;67.07;;;;;;;18.84;50.77;100728.72;462777;114;922729;-77
2022/06/10 03:32:06;;;;;;;116.00;69.34;;;;;;;18.86;50.79;100721.80;462764;114;923339;-76
2022/06/10 03:33:20;;;;;;;121.06;69.60;;;;;;;18.98;50.73;100714.16;476844;110;947149;-75
2022/06/10 03:34:26;;;;;;;114.35;70.41;;;;;;;18.91;50.70;100723.80;465054;112;922602;-76
2022/06/10 03:35:33;;;;;;;113.73;68.52;;;;;;;18.94;50.72;100729.61;471012;112;922532;-76
2022/06/10 03:36:37;;;;;;;112.97;68.70;;;;;;;18.97;50.75;100722.70;471152;112;923027;-76
2022/06/10 03:37:41;;;;;;;108.51;69.98;;;;;;;19.01;50.71;100723.86;471386;112;922555;-76
2022/06/10 03:38:47;;;;;;;108.11;68.71;;;;;;;19.03;50.71;100721.64;471268;112;922521;-75
2022/06/10 03:39:53;;;;;;;110.88;69.50;;;;;;;19.06;50.69;100715.59;471066;112;923365;-75
2022/06/10 03:40:58;;;;;;;119.31;70.62;;;;;;;19.09;50.66;100715.05;471083;112;923003;-76
2022/06/10 03:42:12;;;;;;;117.96;70.28;;;;;;;19.11;50.63;100718.39;470832;112;922583;-76
2022/06/10 03:43:16;;;;;;;110.12;69.12;;;;;;;19.14;50.66;100721.44;471080;112;922521;-76
2022/06/10 03:44:21;;;;;;;109.92;69.27;;;;;;;19.18;50.68;100721.75;471294;112;922484;-76
2022/06/10 03:45:27;;;;;;;109.20;69.04;;;;;;;19.20;50.72;100724.23;471125;112;923219;-76
2022/06/10 03:46:33;;;;;;;108.71;65.66;;;;;;;19.22;50.77;100717.34;470490;112;922956;-76
2022/06/10 03:47:38;;;;;;;106.84;63.49;;;;;;;19.24;50.71;100723.41;471124;112;922591;-76
2022/06/10 03:48:44;;;;;;;109.47;61.11;;;;;;;19.27;50.65;100730.35;471196;112;923021;-76
2022/06/10 03:49:59;;;;;;;95.76;59.68;;;;;;;19.29;50.62;100726.23;471140;112;922499;-75
2022/06/10 03:51:04;;;;;;;91.04;57.54;;;;;;;19.31;50.48;100725.94;470738;112;922537;-75
2022/06/10 03:52:09;;;;;;;90.42;55.79;;;;;;;19.34;50.34;100726.26;471155;112;922875;-76
2022/06/10 03:53:15;;;;;;;91.28;56.04;;;;;;;19.36;50.29;100728.73;471200;112;923401;-76
2022/06/10 03:54:19;;;;;;;90.85;56.31;;;;;;;19.38;50.25;100730.14;471202;112;923102;-76
2022/06/10 03:55:23;;;;;;;89.33;56.69;;;;;;;19.41;50.19;100729.59;471143;112;923093;-75
2022/06/10 03:56:26;;;;;;;89.51;54.89;;;;;;;19.43;50.11;100721.86;471353;112;923018;-75
2022/06/10 03:57:29;;;;;;;92.55;53.24;;;;;;;19.46;50.01;100720.54;471344;112;922986;-76
2022/06/10 03:58:32;;;;;;;90.36;53.91;;;;;;;19.48;49.91;100721.08;471359;112;922908;-76
2022/06/10 03:59:35;;;;;;;90.16;52.78;;;;;;;19.49;49.78;100723.59;471265;112;922516;-75
2022/06/10 04:00:39;;;;;;;89.03;53.30;;;;;;;19.54;49.56;100726.38;471288;112;922878;-75
2022/06/10 04:01:42;;;;;;;87.53;51.59;;;;;;;19.54;49.56;100726.38;471314;112;923078;-76
2022/06/10 04:02:45;;;;;;;84.40;51.74;;;;;;;19.57;49.62;100725.02;471373;112;923052;-76
2022/06/10 04:03:49;;;;;;;88.44;52.31;;;;;;;19.60;49.59;100721.69;471342;112;923091;-77
2022/06/10 04:04:52;;;;;;;86.54;52.07;;;;;;;19.61;49.61;100723.36;471264;112;923236;-75
2022/06/10 04:05:56;;;;;;;86.97;51.29;;;;;;;19.64;49.58;100722.80;471356;112;923191;-76
2022/06/10 04:07:01;;;;;;;82.78;49.38;;;;;;;19.66;49.56;100726.14;468129;112;922748;-76
2022/06/10 04:08:05;;;;;;;85.23;51.24;;;;;;;19.69;49.56;100720.05;471389;112;922940;-75
2022/06/10 04:09:09;;;;;;;81.89;50.52;;;;;;;19.72;49.57;100721.45;471276;112;922642;-76
2022/06/10 04:10:16;;;;;;;90.66;51.78;;;;;;;19.74;49.61;100722.00;471216;112;922974;-77
2022/06/10 04:11:19;;;;;;;84.76;51.80;;;;;;;19.76;49.53;100719.80;471198;112;922523;-75
2022/06/10 04:12:25;;;;;;;89.17;51.39;;;;;;;19.78;49.51;100723.14;471386;112;922967;-76
2022/06/10 04:13:28;;;;;;;87.12;51.94;;;;;;;19.80;49.42;100716.21;471233;112;922945;-76
2022/06/10 04:14:31;;;;;;;94.90;56.70;;;;;;;19.82;49.33;100718.72;471415;112;922530;-77
2022/06/10 04:15:34;;;;;;;95.26;55.33;;;;;;;19.84;49.25;100719.28;468371;112;922527;-75
2022/06/10 04:16:37;;;;;;;97.29;56.94;;;;;;;19.87;49.20;100724.26;463192;114;922988;-76
2022/06/10 04:17:50;;;;;;;86.73;56.00;;;;;;;19.88;49.09;100714.86;463126;114;922991;-76
2022/06/10 04:18:53;;;;;;;96.97;58.88;;;;;;;19.90;49.02;100721.77;462908;112;922576;-75
2022/06/10 04:19:57;;;;;;;104.97;60.18;;;;;;;19.92;48.92;100719.57;462981;114;922930;-75
2022/06/10 04:21:00;;;;;;;100.77;59.55;;;;;;;19.96;48.89;100725.37;462982;114;922965;-76
2022/06/10 04:22:04;;;;;;;101.97;59.77;;;;;;;20.02;48.84;100727.05;463045;114;922995;-77
2022/06/10 04:23:07;;;;;;;105.78;60.56;;;;;;;20.02;48.84;100727.05;462914;113;923237;-76
2022/06/10 04:24:10;;;;;;;96.49;57.17;;;;;;;20.03;48.67;100734.26;463037;114;922592;-77
2022/06/10 04:25:14;;;;;;;108.70;59.30;;;;;;;20.07;48.64;100729.03;463022;113;930441;-76
2022/06/10 04:26:18;;;;;;;97.95;57.82;;;;;;;20.08;48.60;100720.42;463005;114;922698;-76
2022/06/10 04:27:21;;;;;;;93.98;59.09;;;;;;;20.12;48.56;100729.03;463105;114;923064;-76
2022/06/10 04:28:24;;;;;;;104.06;60.12;;;;;;;20.13;48.54;100728.73;463085;114;922998;-76
2022/06/10 04:29:27;;;;;;;97.96;57.61;;;;;;;20.16;48.50;100724.61;463171;112;923079;-76
2022/06/10 04:30:37;;;;;;;94.44;59.61;;;;;;;20.19;48.46;100729.58;463157;114;923119;-76
2022/06/10 04:31:40;;;;;;;101.94;61.01;;;;;;;20.21;48.50;100730.14;462672;114;922514;-77
2022/06/10 04:32:43;;;;;;;103.70;59.81;;;;;;;20.24;48.57;100727.65;463020;114;922607;-76
2022/06/10 04:33:46;;;;;;;105.82;61.42;;;;;;;20.27;48.62;100729.05;463098;114;922560;-77
2022/06/10 04:34:50;;;;;;;102.62;59.56;;;;;;;20.30;48.63;100734.02;463043;114;922482;-76
2022/06/10 04:35:53;;;;;;;97.65;60.11;;;;;;;20.34;48.57;100735.19;463083;114;930523;-76
2022/06/10 04:36:56;;;;;;;99.19;59.55;;;;;;;20.35;48.51;100734.89;463124;114;923022;-76
2022/06/10 04:37:59;;;;;;;100.51;58.39;;;;;;;20.38;48.52;100736.30;463106;114;922561;-76
2022/06/10 04:39:04;;;;;;;99.69;59.35;;;;;;;20.42;48.53;100739.33;462342;114;923136;-76
2022/06/10 04:40:09;;;;;;;106.63;61.60;;;;;;;20.44;48.56;100735.19;462998;114;922887;-76
2022/06/10 04:41:13;;;;;;;107.20;62.19;;;;;;;20.47;48.49;100739.33;462974;114;922939;-76
2022/06/10 04:42:16;;;;;;;102.76;63.35;;;;;;;20.49;48.43;100734.36;463050;114;922533;-76
2022/06/10 04:43:19;;;;;;;115.62;65.31;;;;;;;20.51;48.31;100741.27;463017;114;930591;-75
2022/06/10 04:44:23;;;;;;;109.84;67.33;;;;;;;20.53;48.22;100741.00;462989;114;922599;-76
2022/06/10 04:45:29;;;;;;;120.21;67.81;;;;;;;20.55;48.14;100745.17;462938;114;922616;-76
2022/06/10 04:46:41;;;;;;;109.84;67.69;;;;;;;20.57;48.04;100744.87;462716;114;930628;-76
2022/06/10 04:47:44;;;;;;;126.21;76.14;;;;;;;20.59;48.04;100743.50;462830;114;922489;-76
2022/06/10 04:48:47;;;;;;;129.96;77.84;;;;;;;20.61;47.79;100746.00;463023;114;922895;-76
2022/06/10 04:49:50;;;;;;;128.50;80.44;;;;;;;20.64;47.52;100746.27;462987;114;922664;-76
2022/06/10 04:50:54;;;;;;;134.72;83.51;;;;;;;20.66;47.30;100746.00;462995;114;923045;-76
2022/06/10 04:51:57;;;;;;;133.97;84.95;;;;;;;20.69;47.18;100750.97;462996;114;922934;-76
2022/06/10 04:53:00;;;;;;;149.75;87.78;;;;;;;20.70;47.10;100750.70;462979;114;923139;-76
2022/06/10 04:54:04;;;;;;;146.97;89.61;;;;;;;20.73;46.87;100755.67;463030;114;922559;-76
2022/06/10 04:55:09;;;;;;;143.30;89.43;;;;;;;20.75;46.64;100756.23;462838;114;922529;-76
2022/06/10 04:56:13;;;;;;;147.70;91.86;;;;;;;20.77;46.36;100744.88;462788;114;922506;-76
2022/06/10 04:57:16;;;;;;;153.24;90.49;;;;;;;20.80;46.12;100744.31;463011;114;922735;-76
2022/06/10 04:58:19;;;;;;;147.02;89.73;;;;;;;20.82;45.88;100747.65;462975;114;922611;-77
2022/06/10 04:59:22;;;;;;;154.58;91.86;;;;;;;20.84;45.72;100748.18;462957;114;923096;-76
2022/06/10 05:00:28;;;;;;;154.31;92.80;;;;;;;20.87;45.61;100750.41;462998;114;922583;-76
2022/06/10 05:01:31;;;;;;;150.46;91.99;;;;;;;20.90;45.53;100754.55;462829;114;922705;-76
2022/06/10 05:02:35;;;;;;;152.44;93.38;;;;;;;20.94;45.53;100750.97;463071;114;923102;-75
2022/06/10 05:03:38;;;;;;;156.81;95.69;;;;;;;20.95;45.48;100746.26;463003;114;922543;-76
2022/06/10 05:04:41;;;;;;;164.46;95.16;;;;;;;20.98;45.47;100751.23;462979;114;922556;-76
2022/06/10 05:05:44;;;;;;;154.65;91.84;;;;;;;21.00;45.42;100749.02;463021;114;922606;-75
2022/06/10 05:06:47;;;;;;;152.46;95.18;;;;;;;21.03;45.43;100754.82;463003;114;922529;-76
2022/06/10 05:07:52;;;;;;;156.85;92.47;;;;;;;21.05;45.42;100747.06;462771;114;922555;-76
2022/06/10 05:08:56;;;;;;;149.55;94.28;;;;;;;21.07;45.38;100753.14;462944;114;922593;-77
2022/06/10 05:09:59;;;;;;;150.71;93.48;;;;;;;21.09;45.18;100758.42;462906;114;923065;-76
2022/06/10 05:11:03;;;;;;;156.94;94.91;;;;;;;21.11;45.06;100758.98;463041;114;922824;-76